sensor_id;sensor_type;location;lat;lon;timestamp;temperature;humidity
33077;DHT22;38790;51.964;5.924;2022-07-06T00:01:56;14.50;99.90
33077;DHT22;38790;51.964;5.924;2022-07-06T00:04:22;14.40;99.90
33077;DHT22;38790;51.964;5.924;2022-07-06T00:06:48;14.40;99.90
33077;DHT22;38790;51.964;5.924;2022-07-06T00:09:15;14.30;99.90
33077;DHT22;38790;51.964;5.924;2022-07-06T00:11:41;14.30;99.90
33077;DHT22;38790;51.964;5.924;2022-07-06T00:14:07;14.30;99.90
33077;DHT22;38790;51.964;5.924;2022-07-06T00:16:33;14.20;99.90
33077;DHT22;38790;51.964;5.924;2022-07-06T00:19:00;14.20;99.90
33077;DHT22;38790;51.964;5.924;2022-07-06T00:21:26;14.10;99.90
33077;DHT22;38790;51.964;5.924;2022-07-06T00:23:52;14.10;99.90
33077;DHT22;38790;51.964;5.924;2022-07-06T00:26:18;14.10;99.90
33077;DHT22;38790;51.964;5.924;2022-07-06T00:28:45;14.10;99.90
33077;DHT22;38790;51.964;5.924;2022-07-06T00:31:11;14.10;99.90
33077;DHT22;38790;51.964;5.924;2022-07-06T00:33:37;14.00;99.90
33077;DHT22;38790;51.964;5.924;2022-07-06T00:36:04;14.10;99.90
33077;DHT22;38790;51.964;5.924;2022-07-06T00:38:30;14.10;99.90
33077;DHT22;38790;51.964;5.924;2022-07-06T00:40:56;14.10;99.90
33077;DHT22;38790;51.964;5.924;2022-07-06T00:43:22;14.00;99.90
33077;DHT22;38790;51.964;5.924;2022-07-06T00:45:48;14.00;99.90
33077;DHT22;38790;51.964;5.924;2022-07-06T00:48:15;13.90;99.90
33077;DHT22;38790;51.964;5.924;2022-07-06T00:50:41;13.90;99.90
33077;DHT22;38790;51.964;5.924;2022-07-06T00:53:07;13.90;99.90
33077;DHT22;38790;51.964;5.924;2022-07-06T00:55:38;13.90;99.90
33077;DHT22;38790;51.964;5.924;2022-07-06T00:58:06;13.80;99.90
33077;DHT22;38790;51.964;5.924;2022-07-06T01:00:33;13.80;99.90
33077;DHT22;38790;51.964;5.924;2022-07-06T01:03:00;13.90;99.90
33077;DHT22;38790;51.964;5.924;2022-07-06T01:05:26;13.90;99.90
33077;DHT22;38790;51.964;5.924;2022-07-06T01:07:53;13.80;99.90
33077;DHT22;38790;51.964;5.924;2022-07-06T01:10:20;13.80;99.90
33077;DHT22;38790;51.964;5.924;2022-07-06T01:12:48;13.80;99.90
33077;DHT22;38790;51.964;5.924;2022-07-06T01:15:22;13.70;99.90
33077;DHT22;38790;51.964;5.924;2022-07-06T01:17:49;13.70;99.90
33077;DHT22;38790;51.964;5.924;2022-07-06T01:22:45;13.70;99.90
33077;DHT22;38790;51.964;5.924;2022-07-06T01:25:12;13.70;99.90
33077;DHT22;38790;51.964;5.924;2022-07-06T01:27:40;13.70;99.90
33077;DHT22;38790;51.964;5.924;2022-07-06T01:30:08;13.60;99.90
33077;DHT22;38790;51.964;5.924;2022-07-06T01:32:37;13.60;99.90
33077;DHT22;38790;51.964;5.924;2022-07-06T01:35:06;13.60;99.90
33077;DHT22;38790;51.964;5.924;2022-07-06T01:37:32;13.60;99.90
33077;DHT22;38790;51.964;5.924;2022-07-06T01:40:04;13.60;99.90
33077;DHT22;38790;51.964;5.924;2022-07-06T01:42:31;13.60;99.90
33077;DHT22;38790;51.964;5.924;2022-07-06T01:44:57;13.50;99.90
33077;DHT22;38790;51.964;5.924;2022-07-06T01:47:24;13.50;99.90
33077;DHT22;38790;51.964;5.924;2022-07-06T01:49:50;13.50;99.90
33077;DHT22;38790;51.964;5.924;2022-07-06T01:52:16;13.40;99.90
33077;DHT22;38790;51.964;5.924;2022-07-06T01:54:43;13.40;99.90
33077;DHT22;38790;51.964;5.924;2022-07-06T01:57:09;13.40;99.90
33077;DHT22;38790;51.964;5.924;2022-07-06T01:59:36;13.30;99.90
33077;DHT22;38790;51.964;5.924;2022-07-06T02:02:02;13.40;99.90
33077;DHT22;38790;51.964;5.924;2022-07-06T02:04:28;13.30;99.90
33077;DHT22;38790;51.964;5.924;2022-07-06T02:06:54;13.30;99.90
33077;DHT22;38790;51.964;5.924;2022-07-06T02:09:21;13.30;99.90
33077;DHT22;38790;51.964;5.924;2022-07-06T02:11:47;13.30;99.90
33077;DHT22;38790;51.964;5.924;2022-07-06T02:14:13;13.30;99.90
33077;DHT22;38790;51.964;5.924;2022-07-06T02:16:39;13.30;99.90
33077;DHT22;38790;51.964;5.924;2022-07-06T02:19:05;13.20;99.90
33077;DHT22;38790;51.964;5.924;2022-07-06T02:21:31;13.20;99.90
33077;DHT22;38790;51.964;5.924;2022-07-06T02:23:57;13.20;99.90
33077;DHT22;38790;51.964;5.924;2022-07-06T02:26:23;13.20;99.90
33077;DHT22;38790;51.964;5.924;2022-07-06T02:28:50;13.20;99.90
33077;DHT22;38790;51.964;5.924;2022-07-06T02:31:16;13.30;99.90
33077;DHT22;38790;51.964;5.924;2022-07-06T02:33:42;13.20;99.90
33077;DHT22;38790;51.964;5.924;2022-07-06T02:36:08;13.20;99.90
33077;DHT22;38790;51.964;5.924;2022-07-06T02:38:34;13.10;99.90
33077;DHT22;38790;51.964;5.924;2022-07-06T02:41:00;13.20;99.90
33077;DHT22;38790;51.964;5.924;2022-07-06T02:43:26;13.10;99.90
33077;DHT22;38790;51.964;5.924;2022-07-06T02:45:52;13.10;99.90
33077;DHT22;38790;51.964;5.924;2022-07-06T02:48:18;13.10;99.90
33077;DHT22;38790;51.964;5.924;2022-07-06T02:50:47;13.10;99.90
33077;DHT22;38790;51.964;5.924;2022-07-06T02:53:13;13.00;99.90
33077;DHT22;38790;51.964;5.924;2022-07-06T02:55:39;13.00;99.90
33077;DHT22;38790;51.964;5.924;2022-07-06T02:58:06;13.00;99.90
33077;DHT22;38790;51.964;5.924;2022-07-06T03:00:32;12.90;99.90
33077;DHT22;38790;51.964;5.924;2022-07-06T03:02:58;12.90;99.90
33077;DHT22;38790;51.964;5.924;2022-07-06T03:05:24;12.90;99.90
33077;DHT22;38790;51.964;5.924;2022-07-06T03:07:50;12.90;99.90
33077;DHT22;38790;51.964;5.924;2022-07-06T03:10:16;12.90;99.90
33077;DHT22;38790;51.964;5.924;2022-07-06T03:12:43;12.90;99.90
33077;DHT22;38790;51.964;5.924;2022-07-06T03:15:09;12.90;99.90
33077;DHT22;38790;51.964;5.924;2022-07-06T03:17:36;12.90;99.90
33077;DHT22;38790;51.964;5.924;2022-07-06T03:20:04;12.90;99.90
33077;DHT22;38790;51.964;5.924;2022-07-06T03:22:30;12.90;99.90
33077;DHT22;38790;51.964;5.924;2022-07-06T03:24:57;12.80;99.90
33077;DHT22;38790;51.964;5.924;2022-07-06T03:27:23;12.80;99.90
33077;DHT22;38790;51.964;5.924;2022-07-06T03:29:49;12.80;99.90
33077;DHT22;38790;51.964;5.924;2022-07-06T03:32:15;12.90;99.90
33077;DHT22;38790;51.964;5.924;2022-07-06T03:34:41;12.90;99.90
33077;DHT22;38790;51.964;5.924;2022-07-06T03:37:07;13.00;99.90
33077;DHT22;38790;51.964;5.924;2022-07-06T03:39:34;13.00;99.90
33077;DHT22;38790;51.964;5.924;2022-07-06T03:42:00;13.10;99.90
33077;DHT22;38790;51.964;5.924;2022-07-06T03:44:26;13.10;99.90
33077;DHT22;38790;51.964;5.924;2022-07-06T03:46:52;13.30;99.90
33077;DHT22;38790;51.964;5.924;2022-07-06T03:49:21;13.30;99.90
33077;DHT22;38790;51.964;5.924;2022-07-06T03:51:47;13.40;99.90
33077;DHT22;38790;51.964;5.924;2022-07-06T03:54:13;13.40;99.90
33077;DHT22;38790;51.964;5.924;2022-07-06T03:56:40;13.60;99.90
33077;DHT22;38790;51.964;5.924;2022-07-06T03:59:06;13.60;99.90
33077;DHT22;38790;51.964;5.924;2022-07-06T04:01:32;13.70;99.90
33077;DHT22;38790;51.964;5.924;2022-07-06T04:03:58;13.80;99.90
33077;DHT22;38790;51.964;5.924;2022-07-06T04:06:24;13.80;99.90
33077;DHT22;38790;51.964;5.924;2022-07-06T04:08:50;13.80;99.90
33077;DHT22;38790;51.964;5.924;2022-07-06T04:11:16;13.80;99.90
33077;DHT22;38790;51.964;5.924;2022-07-06T04:13:43;13.80;99.90
33077;DHT22;38790;51.964;5.924;2022-07-06T04:16:09;13.80;99.90
33077;DHT22;38790;51.964;5.924;2022-07-06T04:18:35;13.90;99.90
33077;DHT22;38790;51.964;5.924;2022-07-06T04:21:01;13.90;99.90
33077;DHT22;38790;51.964;5.924;2022-07-06T04:23:28;14.00;99.90
33077;DHT22;38790;51.964;5.924;2022-07-06T04:25:54;14.00;99.90
33077;DHT22;38790;51.964;5.924;2022-07-06T04:28:20;14.00;99.90
33077;DHT22;38790;51.964;5.924;2022-07-06T04:30:46;14.00;99.90
33077;DHT22;38790;51.964;5.924;2022-07-06T04:33:13;14.00;99.90
33077;DHT22;38790;51.964;5.924;2022-07-06T04:35:39;14.00;99.90
33077;DHT22;38790;51.964;5.924;2022-07-06T04:38:05;14.10;99.90
33077;DHT22;38790;51.964;5.924;2022-07-06T04:40:31;14.20;99.90
33077;DHT22;38790;51.964;5.924;2022-07-06T04:42:58;14.30;99.90
33077;DHT22;38790;51.964;5.924;2022-07-06T04:45:24;14.50;99.90
33077;DHT22;38790;51.964;5.924;2022-07-06T04:47:50;14.70;99.90
33077;DHT22;38790;51.964;5.924;2022-07-06T04:50:16;15.30;99.90
33077;DHT22;38790;51.964;5.924;2022-07-06T04:52:42;16.70;99.90
33077;DHT22;38790;51.964;5.924;2022-07-06T04:55:08;17.90;99.90
33077;DHT22;38790;51.964;5.924;2022-07-06T04:57:35;19.30;99.90
33077;DHT22;38790;51.964;5.924;2022-07-06T05:00:03;19.40;99.90
33077;DHT22;38790;51.964;5.924;2022-07-06T05:02:30;18.30;99.90
33077;DHT22;38790;51.964;5.924;2022-07-06T05:04:56;17.50;99.90
33077;DHT22;38790;51.964;5.924;2022-07-06T05:07:22;17.30;99.90
33077;DHT22;38790;51.964;5.924;2022-07-06T05:09:48;17.40;99.90
33077;DHT22;38790;51.964;5.924;2022-07-06T05:12:14;17.20;99.90
33077;DHT22;38790;51.964;5.924;2022-07-06T05:14:40;16.90;99.90
33077;DHT22;38790;51.964;5.924;2022-07-06T05:17:07;16.80;99.90
33077;DHT22;38790;51.964;5.924;2022-07-06T05:19:33;18.10;99.90
33077;DHT22;38790;51.964;5.924;2022-07-06T05:21:59;19.00;99.90
33077;DHT22;38790;51.964;5.924;2022-07-06T05:24:25;19.10;99.90
33077;DHT22;38790;51.964;5.924;2022-07-06T05:26:51;19.60;99.90
33077;DHT22;38790;51.964;5.924;2022-07-06T05:29:17;19.20;99.90
33077;DHT22;38790;51.964;5.924;2022-07-06T05:31:43;18.60;99.90
33077;DHT22;38790;51.964;5.924;2022-07-06T05:34:09;18.00;99.90
33077;DHT22;38790;51.964;5.924;2022-07-06T05:36:35;17.60;99.90
33077;DHT22;38790;51.964;5.924;2022-07-06T05:39:01;17.50;99.90
33077;DHT22;38790;51.964;5.924;2022-07-06T05:41:28;17.40;99.90
33077;DHT22;38790;51.964;5.924;2022-07-06T05:43:54;17.40;99.90
33077;DHT22;38790;51.964;5.924;2022-07-06T05:46:20;17.40;99.90
33077;DHT22;38790;51.964;5.924;2022-07-06T05:48:46;17.30;99.90
33077;DHT22;38790;51.964;5.924;2022-07-06T05:51:31;17.10;99.90
33077;DHT22;38790;51.964;5.924;2022-07-06T05:53:57;17.00;99.90
33077;DHT22;38790;51.964;5.924;2022-07-06T05:56:23;17.10;99.90
33077;DHT22;38790;51.964;5.924;2022-07-06T05:58:49;17.10;99.90
33077;DHT22;38790;51.964;5.924;2022-07-06T06:01:15;17.10;99.90
33077;DHT22;38790;51.964;5.924;2022-07-06T06:03:41;17.20;99.90
33077;DHT22;38790;51.964;5.924;2022-07-06T06:06:07;17.20;99.90
33077;DHT22;38790;51.964;5.924;2022-07-06T06:08:33;17.60;99.90
33077;DHT22;38790;51.964;5.924;2022-07-06T06:10:59;18.40;99.90
33077;DHT22;38790;51.964;5.924;2022-07-06T06:13:25;18.90;99.90
33077;DHT22;38790;51.964;5.924;2022-07-06T06:15:52;19.20;99.90
33077;DHT22;38790;51.964;5.924;2022-07-06T06:18:18;19.40;99.90
33077;DHT22;38790;51.964;5.924;2022-07-06T06:20:45;19.80;99.90
33077;DHT22;38790;51.964;5.924;2022-07-06T06:23:11;19.90;99.90
33077;DHT22;38790;51.964;5.924;2022-07-06T06:25:38;19.90;99.90
33077;DHT22;38790;51.964;5.924;2022-07-06T06:28:09;19.60;99.90
33077;DHT22;38790;51.964;5.924;2022-07-06T06:30:36;19.60;99.90
33077;DHT22;38790;51.964;5.924;2022-07-06T06:33:16;20.00;99.90
33077;DHT22;38790;51.964;5.924;2022-07-06T06:35:47;20.40;99.90
33077;DHT22;38790;51.964;5.924;2022-07-06T06:38:14;20.80;99.90
33077;DHT22;38790;51.964;5.924;2022-07-06T06:40:41;21.00;99.90
33077;DHT22;38790;51.964;5.924;2022-07-06T06:43:07;21.30;99.90
33077;DHT22;38790;51.964;5.924;2022-07-06T06:45:33;21.30;99.90
33077;DHT22;38790;51.964;5.924;2022-07-06T06:47:59;21.20;99.90
33077;DHT22;38790;51.964;5.924;2022-07-06T06:50:26;21.10;99.90
33077;DHT22;38790;51.964;5.924;2022-07-06T06:52:52;21.10;99.90
33077;DHT22;38790;51.964;5.924;2022-07-06T06:55:18;20.90;99.90
33077;DHT22;38790;51.964;5.924;2022-07-06T06:57:44;20.50;99.90
33077;DHT22;38790;51.964;5.924;2022-07-06T07:00:11;20.90;99.90
33077;DHT22;38790;51.964;5.924;2022-07-06T07:02:38;21.30;99.90
33077;DHT22;38790;51.964;5.924;2022-07-06T07:05:05;21.60;99.90
33077;DHT22;38790;51.964;5.924;2022-07-06T07:07:32;21.70;99.90
33077;DHT22;38790;51.964;5.924;2022-07-06T07:09:59;21.20;99.90
33077;DHT22;38790;51.964;5.924;2022-07-06T07:12:25;21.10;99.90
33077;DHT22;38790;51.964;5.924;2022-07-06T07:14:51;21.10;99.90
33077;DHT22;38790;51.964;5.924;2022-07-06T07:17:17;21.20;99.90
33077;DHT22;38790;51.964;5.924;2022-07-06T07:19:43;21.50;99.90
33077;DHT22;38790;51.964;5.924;2022-07-06T07:22:09;21.40;99.90
33077;DHT22;38790;51.964;5.924;2022-07-06T07:24:36;21.50;99.90
33077;DHT22;38790;51.964;5.924;2022-07-06T07:27:02;21.60;99.90
33077;DHT22;38790;51.964;5.924;2022-07-06T07:29:28;21.90;99.90
33077;DHT22;38790;51.964;5.924;2022-07-06T07:31:54;22.10;99.90
33077;DHT22;38790;51.964;5.924;2022-07-06T07:34:20;22.20;99.90
33077;DHT22;38790;51.964;5.924;2022-07-06T07:36:46;22.40;99.90
33077;DHT22;38790;51.964;5.924;2022-07-06T07:39:12;22.60;99.90
33077;DHT22;38790;51.964;5.924;2022-07-06T07:41:39;22.80;99.90
33077;DHT22;38790;51.964;5.924;2022-07-06T07:44:05;23.00;99.90
33077;DHT22;38790;51.964;5.924;2022-07-06T07:46:31;22.60;99.90
33077;DHT22;38790;51.964;5.924;2022-07-06T07:48:59;22.60;99.90
33077;DHT22;38790;51.964;5.924;2022-07-06T07:51:25;23.10;99.90
33077;DHT22;38790;51.964;5.924;2022-07-06T07:53:51;22.40;99.90
33077;DHT22;38790;51.964;5.924;2022-07-06T07:56:18;22.30;99.90
33077;DHT22;38790;51.964;5.924;2022-07-06T07:58:44;22.70;99.90
33077;DHT22;38790;51.964;5.924;2022-07-06T08:01:10;23.10;99.90
33077;DHT22;38790;51.964;5.924;2022-07-06T08:03:36;23.40;99.90
33077;DHT22;38790;51.964;5.924;2022-07-06T08:06:02;23.60;99.90
33077;DHT22;38790;51.964;5.924;2022-07-06T08:08:28;23.00;99.90
33077;DHT22;38790;51.964;5.924;2022-07-06T08:10:55;22.80;99.90
33077;DHT22;38790;51.964;5.924;2022-07-06T08:13:21;23.40;99.90
33077;DHT22;38790;51.964;5.924;2022-07-06T08:15:47;23.90;99.90
33077;DHT22;38790;51.964;5.924;2022-07-06T08:18:13;24.50;99.90
33077;DHT22;38790;51.964;5.924;2022-07-06T08:20:39;24.30;99.90
33077;DHT22;38790;51.964;5.924;2022-07-06T08:23:05;23.70;99.90
33077;DHT22;38790;51.964;5.924;2022-07-06T08:25:31;23.10;99.90
33077;DHT22;38790;51.964;5.924;2022-07-06T08:27:58;22.30;99.90
33077;DHT22;38790;51.964;5.924;2022-07-06T08:30:24;22.00;99.90
33077;DHT22;38790;51.964;5.924;2022-07-06T08:32:50;22.40;99.90
33077;DHT22;38790;51.964;5.924;2022-07-06T08:35:16;23.00;99.90
33077;DHT22;38790;51.964;5.924;2022-07-06T08:37:42;23.50;99.90
33077;DHT22;38790;51.964;5.924;2022-07-06T08:40:09;24.10;99.90
33077;DHT22;38790;51.964;5.924;2022-07-06T08:42:36;24.30;99.90
33077;DHT22;38790;51.964;5.924;2022-07-06T08:45:04;24.00;99.90
33077;DHT22;38790;51.964;5.924;2022-07-06T08:47:31;23.60;99.90
33077;DHT22;38790;51.964;5.924;2022-07-06T08:49:57;23.60;99.90
33077;DHT22;38790;51.964;5.924;2022-07-06T08:52:24;24.20;99.90
33077;DHT22;38790;51.964;5.924;2022-07-06T08:54:51;24.40;99.90
33077;DHT22;38790;51.964;5.924;2022-07-06T08:57:17;24.60;99.90
33077;DHT22;38790;51.964;5.924;2022-07-06T08:59:44;24.80;99.90
33077;DHT22;38790;51.964;5.924;2022-07-06T09:02:10;24.40;99.90
33077;DHT22;38790;51.964;5.924;2022-07-06T09:04:37;24.00;99.90
33077;DHT22;38790;51.964;5.924;2022-07-06T09:07:04;23.80;99.90
33077;DHT22;38790;51.964;5.924;2022-07-06T09:09:30;23.50;99.90
33077;DHT22;38790;51.964;5.924;2022-07-06T09:11:59;23.20;99.90
33077;DHT22;38790;51.964;5.924;2022-07-06T09:14:25;22.30;99.90
33077;DHT22;38790;51.964;5.924;2022-07-06T09:17:04;22.50;99.90
33077;DHT22;38790;51.964;5.924;2022-07-06T09:19:32;23.10;99.90
33077;DHT22;38790;51.964;5.924;2022-07-06T09:21:59;23.60;99.90
33077;DHT22;38790;51.964;5.924;2022-07-06T09:24:25;23.60;99.90
33077;DHT22;38790;51.964;5.924;2022-07-06T09:26:55;23.70;99.90
33077;DHT22;38790;51.964;5.924;2022-07-06T09:29:31;23.30;99.90
33077;DHT22;38790;51.964;5.924;2022-07-06T09:32:02;23.20;99.90
33077;DHT22;38790;51.964;5.924;2022-07-06T09:37:08;22.90;99.90
33077;DHT22;38790;51.964;5.924;2022-07-06T09:39:34;22.60;99.90
33077;DHT22;38790;51.964;5.924;2022-07-06T09:42:02;22.60;99.90
33077;DHT22;38790;51.964;5.924;2022-07-06T09:44:30;22.60;99.90
33077;DHT22;38790;51.964;5.924;2022-07-06T09:46:59;23.00;99.90
33077;DHT22;38790;51.964;5.924;2022-07-06T09:49:26;23.20;99.90
33077;DHT22;38790;51.964;5.924;2022-07-06T09:51:55;23.60;99.90
33077;DHT22;38790;51.964;5.924;2022-07-06T09:54:22;23.50;99.90
33077;DHT22;38790;51.964;5.924;2022-07-06T09:56:49;23.60;99.90
33077;DHT22;38790;51.964;5.924;2022-07-06T09:59:23;23.80;99.90
33077;DHT22;38790;51.964;5.924;2022-07-06T10:01:55;24.20;99.90
33077;DHT22;38790;51.964;5.924;2022-07-06T10:04:23;24.10;99.90
33077;DHT22;38790;51.964;5.924;2022-07-06T10:06:50;24.20;99.90
33077;DHT22;38790;51.964;5.924;2022-07-06T10:09:19;24.10;99.90
33077;DHT22;38790;51.964;5.924;2022-07-06T10:11:57;24.30;99.90
33077;DHT22;38790;51.964;5.924;2022-07-06T10:14:25;24.30;99.90
33077;DHT22;38790;51.964;5.924;2022-07-06T10:16:52;24.20;99.90
33077;DHT22;38790;51.964;5.924;2022-07-06T10:19:20;24.40;99.90
33077;DHT22;38790;51.964;5.924;2022-07-06T10:21:47;24.60;99.90
33077;DHT22;38790;51.964;5.924;2022-07-06T10:24:14;24.40;99.90
33077;DHT22;38790;51.964;5.924;2022-07-06T10:26:41;24.60;99.90
33077;DHT22;38790;51.964;5.924;2022-07-06T10:29:08;24.50;99.90
33077;DHT22;38790;51.964;5.924;2022-07-06T10:31:41;24.40;99.90
33077;DHT22;38790;51.964;5.924;2022-07-06T10:34:10;24.20;99.20
33077;DHT22;38790;51.964;5.924;2022-07-06T10:36:41;24.40;99.90
33077;DHT22;38790;51.964;5.924;2022-07-06T10:39:09;24.40;99.90
33077;DHT22;38790;51.964;5.924;2022-07-06T10:41:54;24.30;99.90
33077;DHT22;38790;51.964;5.924;2022-07-06T10:44:26;24.50;99.90
33077;DHT22;38790;51.964;5.924;2022-07-06T10:46:55;24.70;99.90
33077;DHT22;38790;51.964;5.924;2022-07-06T10:49:23;24.90;99.90
33077;DHT22;38790;51.964;5.924;2022-07-06T10:51:50;25.20;99.90
33077;DHT22;38790;51.964;5.924;2022-07-06T10:54:18;25.40;99.90
33077;DHT22;38790;51.964;5.924;2022-07-06T10:56:51;25.20;99.90
33077;DHT22;38790;51.964;5.924;2022-07-06T10:59:22;25.40;99.90
33077;DHT22;38790;51.964;5.924;2022-07-06T11:04:36;26.00;99.90
33077;DHT22;38790;51.964;5.924;2022-07-06T11:07:18;25.40;99.90
33077;DHT22;38790;51.964;5.924;2022-07-06T11:09:58;25.60;99.90
33077;DHT22;38790;51.964;5.924;2022-07-06T11:12:25;25.50;99.90
33077;DHT22;38790;51.964;5.924;2022-07-06T11:14:52;25.30;99.90
33077;DHT22;38790;51.964;5.924;2022-07-06T11:17:19;24.20;99.90
33077;DHT22;38790;51.964;5.924;2022-07-06T11:20:09;24.40;99.90
33077;DHT22;38790;51.964;5.924;2022-07-06T11:22:37;24.70;99.90
33077;DHT22;38790;51.964;5.924;2022-07-06T11:25:04;25.40;99.90
33077;DHT22;38790;51.964;5.924;2022-07-06T11:27:30;25.70;99.90
33077;DHT22;38790;51.964;5.924;2022-07-06T11:29:57;25.60;99.90
33077;DHT22;38790;51.964;5.924;2022-07-06T11:32:25;25.80;99.90
33077;DHT22;38790;51.964;5.924;2022-07-06T11:34:52;25.90;99.90
33077;DHT22;38790;51.964;5.924;2022-07-06T11:37:19;25.70;99.90
33077;DHT22;38790;51.964;5.924;2022-07-06T11:39:47;25.60;99.90
33077;DHT22;38790;51.964;5.924;2022-07-06T11:42:15;25.50;99.90
33077;DHT22;38790;51.964;5.924;2022-07-06T11:44:43;25.20;99.90
33077;DHT22;38790;51.964;5.924;2022-07-06T11:47:10;24.90;99.90
33077;DHT22;38790;51.964;5.924;2022-07-06T11:49:39;24.90;99.90
33077;DHT22;38790;51.964;5.924;2022-07-06T11:52:06;25.00;99.90
33077;DHT22;38790;51.964;5.924;2022-07-06T11:54:33;25.40;99.90
33077;DHT22;38790;51.964;5.924;2022-07-06T11:57:00;25.40;99.90
33077;DHT22;38790;51.964;5.924;2022-07-06T11:59:28;25.10;99.90
33077;DHT22;38790;51.964;5.924;2022-07-06T12:04:28;25.30;99.90
33077;DHT22;38790;51.964;5.924;2022-07-06T12:06:55;25.20;99.90
33077;DHT22;38790;51.964;5.924;2022-07-06T12:09:25;25.00;99.90
33077;DHT22;38790;51.964;5.924;2022-07-06T12:11:51;24.90;99.90
33077;DHT22;38790;51.964;5.924;2022-07-06T12:14:21;24.70;99.90
33077;DHT22;38790;51.964;5.924;2022-07-06T12:16:49;24.70;99.90
33077;DHT22;38790;51.964;5.924;2022-07-06T12:19:16;24.20;99.90
33077;DHT22;38790;51.964;5.924;2022-07-06T12:21:48;24.50;99.90
33077;DHT22;38790;51.964;5.924;2022-07-06T12:26:45;25.00;99.90
33077;DHT22;38790;51.964;5.924;2022-07-06T12:29:13;25.20;99.90
33077;DHT22;38790;51.964;5.924;2022-07-06T12:31:42;25.50;99.90
33077;DHT22;38790;51.964;5.924;2022-07-06T12:34:15;24.70;99.90
33077;DHT22;38790;51.964;5.924;2022-07-06T12:37:05;24.50;99.90
33077;DHT22;38790;51.964;5.924;2022-07-06T12:39:32;24.90;99.90
33077;DHT22;38790;51.964;5.924;2022-07-06T12:42:05;24.80;99.90
33077;DHT22;38790;51.964;5.924;2022-07-06T12:44:32;24.70;99.90
33077;DHT22;38790;51.964;5.924;2022-07-06T12:47:08;24.90;99.90
33077;DHT22;38790;51.964;5.924;2022-07-06T12:49:36;25.50;99.90
33077;DHT22;38790;51.964;5.924;2022-07-06T12:54:34;26.00;99.90
33077;DHT22;38790;51.964;5.924;2022-07-06T12:57:04;25.80;99.90
33077;DHT22;38790;51.964;5.924;2022-07-06T12:59:33;25.50;99.90
33077;DHT22;38790;51.964;5.924;2022-07-06T13:02:01;25.40;99.90
33077;DHT22;38790;51.964;5.924;2022-07-06T13:04:30;25.70;99.90
33077;DHT22;38790;51.964;5.924;2022-07-06T13:06:59;26.00;99.90
33077;DHT22;38790;51.964;5.924;2022-07-06T13:09:25;26.30;99.90
33077;DHT22;38790;51.964;5.924;2022-07-06T13:11:51;26.20;99.90
33077;DHT22;38790;51.964;5.924;2022-07-06T13:14:18;25.90;99.90
33077;DHT22;38790;51.964;5.924;2022-07-06T13:16:45;26.00;99.90
33077;DHT22;38790;51.964;5.924;2022-07-06T13:19:12;26.20;99.90
33077;DHT22;38790;51.964;5.924;2022-07-06T13:21:38;26.30;99.90
33077;DHT22;38790;51.964;5.924;2022-07-06T13:24:05;26.20;99.90
33077;DHT22;38790;51.964;5.924;2022-07-06T13:26:32;25.90;99.90
33077;DHT22;38790;51.964;5.924;2022-07-06T13:29:03;26.00;99.90
33077;DHT22;38790;51.964;5.924;2022-07-06T13:31:30;26.00;99.90
33077;DHT22;38790;51.964;5.924;2022-07-06T13:33:56;26.10;99.90
33077;DHT22;38790;51.964;5.924;2022-07-06T13:36:23;26.00;99.90
33077;DHT22;38790;51.964;5.924;2022-07-06T13:38:49;26.30;99.90
33077;DHT22;38790;51.964;5.924;2022-07-06T13:41:15;26.40;99.90
33077;DHT22;38790;51.964;5.924;2022-07-06T13:43:41;26.20;99.90
33077;DHT22;38790;51.964;5.924;2022-07-06T13:46:08;26.10;99.90
33077;DHT22;38790;51.964;5.924;2022-07-06T13:48:34;26.00;99.90
33077;DHT22;38790;51.964;5.924;2022-07-06T13:51:01;26.00;99.90
33077;DHT22;38790;51.964;5.924;2022-07-06T13:53:27;26.10;99.90
33077;DHT22;38790;51.964;5.924;2022-07-06T13:55:53;26.50;99.90
33077;DHT22;38790;51.964;5.924;2022-07-06T13:58:20;26.50;99.90
33077;DHT22;38790;51.964;5.924;2022-07-06T14:00:46;26.60;99.90
33077;DHT22;38790;51.964;5.924;2022-07-06T14:03:12;26.30;99.90
33077;DHT22;38790;51.964;5.924;2022-07-06T14:05:38;26.10;99.90
33077;DHT22;38790;51.964;5.924;2022-07-06T14:08:05;25.80;99.90
33077;DHT22;38790;51.964;5.924;2022-07-06T14:10:31;25.70;99.90
33077;DHT22;38790;51.964;5.924;2022-07-06T14:12:57;25.40;99.90
33077;DHT22;38790;51.964;5.924;2022-07-06T14:15:23;25.30;99.90
33077;DHT22;38790;51.964;5.924;2022-07-06T14:17:49;25.20;99.90
33077;DHT22;38790;51.964;5.924;2022-07-06T14:20:15;25.50;99.90
33077;DHT22;38790;51.964;5.924;2022-07-06T14:22:41;25.60;99.90
33077;DHT22;38790;51.964;5.924;2022-07-06T14:25:08;25.50;99.90
33077;DHT22;38790;51.964;5.924;2022-07-06T14:27:35;25.60;99.90
33077;DHT22;38790;51.964;5.924;2022-07-06T14:30:01;25.60;99.90
33077;DHT22;38790;51.964;5.924;2022-07-06T14:32:28;25.40;99.90
33077;DHT22;38790;51.964;5.924;2022-07-06T14:34:55;25.50;99.90
33077;DHT22;38790;51.964;5.924;2022-07-06T14:37:21;25.70;99.90
33077;DHT22;38790;51.964;5.924;2022-07-06T14:39:47;25.70;99.80
33077;DHT22;38790;51.964;5.924;2022-07-06T14:42:14;25.70;99.90
33077;DHT22;38790;51.964;5.924;2022-07-06T14:44:40;25.70;99.90
33077;DHT22;38790;51.964;5.924;2022-07-06T14:47:07;25.80;99.90
33077;DHT22;38790;51.964;5.924;2022-07-06T14:49:33;25.90;99.90
33077;DHT22;38790;51.964;5.924;2022-07-06T14:51:59;25.70;99.90
33077;DHT22;38790;51.964;5.924;2022-07-06T14:54:25;25.60;99.90
33077;DHT22;38790;51.964;5.924;2022-07-06T14:56:52;25.70;99.90
33077;DHT22;38790;51.964;5.924;2022-07-06T14:59:18;25.70;99.90
33077;DHT22;38790;51.964;5.924;2022-07-06T15:01:44;25.60;99.90
33077;DHT22;38790;51.964;5.924;2022-07-06T15:04:10;25.40;99.90
33077;DHT22;38790;51.964;5.924;2022-07-06T15:06:37;25.40;99.90
33077;DHT22;38790;51.964;5.924;2022-07-06T15:09:03;25.40;99.90
33077;DHT22;38790;51.964;5.924;2022-07-06T15:11:31;25.40;99.90
33077;DHT22;38790;51.964;5.924;2022-07-06T15:13:57;25.30;99.90
33077;DHT22;38790;51.964;5.924;2022-07-06T15:16:23;25.20;99.90
33077;DHT22;38790;51.964;5.924;2022-07-06T15:18:50;25.20;99.90
33077;DHT22;38790;51.964;5.924;2022-07-06T15:21:16;25.00;99.90
33077;DHT22;38790;51.964;5.924;2022-07-06T15:23:43;25.00;99.90
33077;DHT22;38790;51.964;5.924;2022-07-06T15:26:09;25.10;99.90
33077;DHT22;38790;51.964;5.924;2022-07-06T15:28:36;25.00;99.90
33077;DHT22;38790;51.964;5.924;2022-07-06T15:31:02;25.10;99.90
33077;DHT22;38790;51.964;5.924;2022-07-06T15:33:28;25.10;99.90
33077;DHT22;38790;51.964;5.924;2022-07-06T15:35:54;25.10;99.90
33077;DHT22;38790;51.964;5.924;2022-07-06T15:38:20;25.20;99.90
33077;DHT22;38790;51.964;5.924;2022-07-06T15:40:56;25.30;99.90
33077;DHT22;38790;51.964;5.924;2022-07-06T15:43:25;25.50;99.90
33077;DHT22;38790;51.964;5.924;2022-07-06T15:45:56;25.30;99.90